sensor_id;sensor_type;location;lat;lon;timestamp;P1;durP1;ratioP1;P2;durP2;ratioP2
40433;SDS011;26146;51.114;5.654;2022-07-04T00:00:05;5.78;;;1.10;;
40433;SDS011;26146;51.114;5.654;2022-07-04T00:04:09;6.13;;;1.17;;
40433;SDS011;26146;51.114;5.654;2022-07-04T00:08:10;6.05;;;1.30;;
40433;SDS011;26146;51.114;5.654;2022-07-04T00:12:11;6.85;;;1.10;;
40433;SDS011;26146;51.114;5.654;2022-07-04T00:16:12;8.05;;;1.20;;
40433;SDS011;26146;51.114;5.654;2022-07-04T00:20:13;5.25;;;1.13;;
40433;SDS011;26146;51.114;5.654;2022-07-04T00:24:14;4.35;;;1.13;;
40433;SDS011;26146;51.114;5.654;2022-07-04T00:28:14;5.28;;;1.30;;
40433;SDS011;26146;51.114;5.654;2022-07-04T00:32:15;5.38;;;1.30;;
40433;SDS011;26146;51.114;5.654;2022-07-04T00:36:16;5.22;;;1.40;;
40433;SDS011;26146;51.114;5.654;2022-07-04T00:40:17;11.63;;;1.65;;
40433;SDS011;26146;51.114;5.654;2022-07-04T00:44:18;7.15;;;1.40;;
40433;SDS011;26146;51.114;5.654;2022-07-04T00:48:20;5.30;;;1.40;;
40433;SDS011;26146;51.114;5.654;2022-07-04T00:52:21;6.25;;;1.42;;
40433;SDS011;26146;51.114;5.654;2022-07-04T00:56:23;5.35;;;1.45;;
40433;SDS011;26146;51.114;5.654;2022-07-04T01:00:27;5.43;;;1.50;;
40433;SDS011;26146;51.114;5.654;2022-07-04T01:04:28;4.75;;;1.30;;
40433;SDS011;26146;51.114;5.654;2022-07-04T01:08:29;5.32;;;1.40;;
40433;SDS011;26146;51.114;5.654;2022-07-04T01:12:30;5.20;;;1.20;;
40433;SDS011;26146;51.114;5.654;2022-07-04T01:16:32;4.72;;;1.13;;
40433;SDS011;26146;51.114;5.654;2022-07-04T01:20:34;5.43;;;1.70;;
40433;SDS011;26146;51.114;5.654;2022-07-04T01:24:36;4.65;;;1.33;;
40433;SDS011;26146;51.114;5.654;2022-07-04T01:28:38;4.47;;;1.40;;
40433;SDS011;26146;51.114;5.654;2022-07-04T01:32:39;4.93;;;1.48;;
40433;SDS011;26146;51.114;5.654;2022-07-04T01:36:41;4.97;;;1.40;;
40433;SDS011;26146;51.114;5.654;2022-07-04T01:40:42;4.60;;;1.38;;
40433;SDS011;26146;51.114;5.654;2022-07-04T01:44:43;5.20;;;1.45;;
40433;SDS011;26146;51.114;5.654;2022-07-04T01:48:44;6.40;;;1.50;;
40433;SDS011;26146;51.114;5.654;2022-07-04T01:52:45;5.32;;;1.33;;
40433;SDS011;26146;51.114;5.654;2022-07-04T01:56:46;4.70;;;1.40;;
40433;SDS011;26146;51.114;5.654;2022-07-04T02:00:47;6.82;;;1.50;;
40433;SDS011;26146;51.114;5.654;2022-07-04T02:05:07;4.73;;;1.33;;
40433;SDS011;26146;51.114;5.654;2022-07-04T02:09:08;4.85;;;1.40;;
40433;SDS011;26146;51.114;5.654;2022-07-04T02:13:15;4.80;;;1.50;;
40433;SDS011;26146;51.114;5.654;2022-07-04T02:17:16;4.97;;;1.35;;
40433;SDS011;26146;51.114;5.654;2022-07-04T02:21:17;4.93;;;1.30;;
40433;SDS011;26146;51.114;5.654;2022-07-04T02:25:18;4.95;;;1.30;;
40433;SDS011;26146;51.114;5.654;2022-07-04T02:29:19;4.93;;;1.33;;
40433;SDS011;26146;51.114;5.654;2022-07-04T02:33:22;7.70;;;1.50;;
40433;SDS011;26146;51.114;5.654;2022-07-04T02:37:23;5.00;;;1.25;;
40433;SDS011;26146;51.114;5.654;2022-07-04T02:41:24;4.75;;;1.35;;
40433;SDS011;26146;51.114;5.654;2022-07-04T02:45:26;4.57;;;1.20;;
40433;SDS011;26146;51.114;5.654;2022-07-04T02:49:27;5.97;;;1.67;;
40433;SDS011;26146;51.114;5.654;2022-07-04T02:53:28;5.57;;;1.30;;
40433;SDS011;26146;51.114;5.654;2022-07-04T02:57:29;4.90;;;1.40;;
40433;SDS011;26146;51.114;5.654;2022-07-04T03:01:30;5.18;;;1.40;;
40433;SDS011;26146;51.114;5.654;2022-07-04T03:05:31;6.28;;;1.70;;
40433;SDS011;26146;51.114;5.654;2022-07-04T03:09:33;5.28;;;1.70;;
40433;SDS011;26146;51.114;5.654;2022-07-04T03:13:35;5.65;;;1.73;;
40433;SDS011;26146;51.114;5.654;2022-07-04T03:17:36;7.55;;;1.70;;
40433;SDS011;26146;51.114;5.654;2022-07-04T03:21:37;4.65;;;1.50;;
40433;SDS011;26146;51.114;5.654;2022-07-04T03:25:38;5.83;;;1.70;;
40433;SDS011;26146;51.114;5.654;2022-07-04T03:29:40;6.88;;;1.73;;
40433;SDS011;26146;51.114;5.654;2022-07-04T03:33:42;7.35;;;1.60;;
40433;SDS011;26146;51.114;5.654;2022-07-04T03:37:43;6.90;;;2.00;;
40433;SDS011;26146;51.114;5.654;2022-07-04T03:41:44;6.30;;;1.90;;
40433;SDS011;26146;51.114;5.654;2022-07-04T03:45:45;6.88;;;1.70;;
40433;SDS011;26146;51.114;5.654;2022-07-04T03:49:46;11.48;;;2.50;;
40433;SDS011;26146;51.114;5.654;2022-07-04T03:53:47;6.47;;;1.80;;
40433;SDS011;26146;51.114;5.654;2022-07-04T03:57:48;7.82;;;1.77;;
40433;SDS011;26146;51.114;5.654;2022-07-04T04:01:48;5.68;;;1.67;;
40433;SDS011;26146;51.114;5.654;2022-07-04T04:05:49;6.55;;;1.70;;
40433;SDS011;26146;51.114;5.654;2022-07-04T04:09:50;5.38;;;1.50;;
40433;SDS011;26146;51.114;5.654;2022-07-04T04:13:51;5.57;;;1.52;;
40433;SDS011;26146;51.114;5.654;2022-07-04T04:17:52;6.60;;;1.83;;
40433;SDS011;26146;51.114;5.654;2022-07-04T04:21:53;5.90;;;1.48;;
40433;SDS011;26146;51.114;5.654;2022-07-04T04:25:54;8.73;;;1.50;;
40433;SDS011;26146;51.114;5.654;2022-07-04T04:29:55;5.80;;;1.55;;
40433;SDS011;26146;51.114;5.654;2022-07-04T04:33:56;6.05;;;1.33;;
40433;SDS011;26146;51.114;5.654;2022-07-04T04:37:57;7.57;;;1.65;;
40433;SDS011;26146;51.114;5.654;2022-07-04T04:41:59;5.05;;;1.33;;
40433;SDS011;26146;51.114;5.654;2022-07-04T04:46:00;6.25;;;1.40;;
40433;SDS011;26146;51.114;5.654;2022-07-04T04:50:01;6.07;;;1.55;;
40433;SDS011;26146;51.114;5.654;2022-07-04T04:54:02;6.18;;;1.60;;
40433;SDS011;26146;51.114;5.654;2022-07-04T04:58:03;6.72;;;1.50;;
40433;SDS011;26146;51.114;5.654;2022-07-04T05:02:04;6.50;;;1.75;;
40433;SDS011;26146;51.114;5.654;2022-07-04T05:06:05;7.10;;;1.95;;
40433;SDS011;26146;51.114;5.654;2022-07-04T05:10:06;7.90;;;2.40;;
40433;SDS011;26146;51.114;5.654;2022-07-04T05:14:08;6.53;;;2.30;;
40433;SDS011;26146;51.114;5.654;2022-07-04T05:18:09;6.45;;;1.65;;
40433;SDS011;26146;51.114;5.654;2022-07-04T05:22:10;5.88;;;1.27;;
40433;SDS011;26146;51.114;5.654;2022-07-04T05:26:11;5.82;;;1.38;;
40433;SDS011;26146;51.114;5.654;2022-07-04T05:30:12;4.85;;;1.10;;
40433;SDS011;26146;51.114;5.654;2022-07-04T05:34:13;4.50;;;1.00;;
40433;SDS011;26146;51.114;5.654;2022-07-04T05:38:14;3.55;;;0.90;;
40433;SDS011;26146;51.114;5.654;2022-07-04T05:42:15;4.72;;;0.80;;
40433;SDS011;26146;51.114;5.654;2022-07-04T05:46:16;3.38;;;0.70;;
40433;SDS011;26146;51.114;5.654;2022-07-04T05:50:17;4.57;;;0.70;;
40433;SDS011;26146;51.114;5.654;2022-07-04T05:54:18;4.28;;;0.80;;
40433;SDS011;26146;51.114;5.654;2022-07-04T05:58:19;4.82;;;1.10;;
40433;SDS011;26146;51.114;5.654;2022-07-04T06:02:20;5.57;;;1.23;;
40433;SDS011;26146;51.114;5.654;2022-07-04T06:06:21;6.32;;;1.50;;
40433;SDS011;26146;51.114;5.654;2022-07-04T06:10:22;8.35;;;1.48;;
40433;SDS011;26146;51.114;5.654;2022-07-04T06:14:23;5.78;;;1.55;;
40433;SDS011;26146;51.114;5.654;2022-07-04T06:18:24;7.18;;;1.40;;
40433;SDS011;26146;51.114;5.654;2022-07-04T06:22:25;8.00;;;1.80;;
40433;SDS011;26146;51.114;5.654;2022-07-04T06:26:26;7.15;;;1.40;;
40433;SDS011;26146;51.114;5.654;2022-07-04T06:30:30;5.07;;;1.10;;
40433;SDS011;26146;51.114;5.654;2022-07-04T06:34:31;6.95;;;1.40;;
40433;SDS011;26146;51.114;5.654;2022-07-04T06:38:50;8.10;;;1.38;;
40433;SDS011;26146;51.114;5.654;2022-07-04T06:42:51;7.95;;;1.40;;
40433;SDS011;26146;51.114;5.654;2022-07-04T06:46:52;7.53;;;1.33;;
40433;SDS011;26146;51.114;5.654;2022-07-04T06:50:54;8.80;;;1.50;;
40433;SDS011;26146;51.114;5.654;2022-07-04T06:54:57;6.03;;;1.20;;
40433;SDS011;26146;51.114;5.654;2022-07-04T06:58:58;6.53;;;1.10;;
40433;SDS011;26146;51.114;5.654;2022-07-04T07:03:00;5.43;;;1.15;;
40433;SDS011;26146;51.114;5.654;2022-07-04T07:07:02;7.43;;;1.50;;
40433;SDS011;26146;51.114;5.654;2022-07-04T07:11:03;4.55;;;1.08;;
40433;SDS011;26146;51.114;5.654;2022-07-04T07:15:13;7.70;;;1.30;;
40433;SDS011;26146;51.114;5.654;2022-07-04T07:19:14;4.55;;;0.80;;
40433;SDS011;26146;51.114;5.654;2022-07-04T07:23:15;7.93;;;1.10;;
40433;SDS011;26146;51.114;5.654;2022-07-04T07:27:16;6.22;;;1.00;;
40433;SDS011;26146;51.114;5.654;2022-07-04T07:31:17;5.47;;;0.85;;
40433;SDS011;26146;51.114;5.654;2022-07-04T07:35:18;5.38;;;1.10;;
40433;SDS011;26146;51.114;5.654;2022-07-04T07:39:20;6.32;;;1.23;;
40433;SDS011;26146;51.114;5.654;2022-07-04T07:43:21;5.07;;;0.80;;
40433;SDS011;26146;51.114;5.654;2022-07-04T07:47:23;6.78;;;1.02;;
40433;SDS011;26146;51.114;5.654;2022-07-04T07:51:24;6.32;;;1.00;;
40433;SDS011;26146;51.114;5.654;2022-07-04T07:55:25;5.80;;;0.90;;
40433;SDS011;26146;51.114;5.654;2022-07-04T07:59:26;5.20;;;0.80;;
40433;SDS011;26146;51.114;5.654;2022-07-04T08:03:27;5.40;;;0.90;;
40433;SDS011;26146;51.114;5.654;2022-07-04T08:07:47;4.65;;;0.60;;
40433;SDS011;26146;51.114;5.654;2022-07-04T08:11:48;6.45;;;0.77;;
40433;SDS011;26146;51.114;5.654;2022-07-04T08:15:49;3.95;;;0.47;;
40433;SDS011;26146;51.114;5.654;2022-07-04T08:19:50;3.83;;;0.57;;
40433;SDS011;26146;51.114;5.654;2022-07-04T08:23:51;3.30;;;0.55;;
40433;SDS011;26146;51.114;5.654;2022-07-04T08:27:53;4.75;;;0.80;;
40433;SDS011;26146;51.114;5.654;2022-07-04T08:31:54;3.97;;;0.75;;
40433;SDS011;26146;51.114;5.654;2022-07-04T08:35:54;5.53;;;0.80;;
40433;SDS011;26146;51.114;5.654;2022-07-04T08:39:57;4.50;;;0.70;;
40433;SDS011;26146;51.114;5.654;2022-07-04T08:43:58;4.72;;;0.80;;
40433;SDS011;26146;51.114;5.654;2022-07-04T08:47:59;6.25;;;0.82;;
40433;SDS011;26146;51.114;5.654;2022-07-04T08:52:06;4.88;;;0.60;;
40433;SDS011;26146;51.114;5.654;2022-07-04T09:00:30;3.30;;;0.60;;
40433;SDS011;26146;51.114;5.654;2022-07-04T09:04:31;3.90;;;0.60;;
40433;SDS011;26146;51.114;5.654;2022-07-04T09:08:32;4.00;;;0.47;;
40433;SDS011;26146;51.114;5.654;2022-07-04T09:12:33;4.18;;;0.70;;
40433;SDS011;26146;51.114;5.654;2022-07-04T09:16:34;5.97;;;0.80;;
40433;SDS011;26146;51.114;5.654;2022-07-04T09:20:35;4.22;;;0.70;;
40433;SDS011;26146;51.114;5.654;2022-07-04T09:24:51;2.53;;;0.40;;
40433;SDS011;26146;51.114;5.654;2022-07-04T09:28:58;4.13;;;0.55;;
40433;SDS011;26146;51.114;5.654;2022-07-04T09:32:59;3.45;;;0.40;;
40433;SDS011;26146;51.114;5.654;2022-07-04T09:37:00;3.30;;;0.50;;
40433;SDS011;26146;51.114;5.654;2022-07-04T09:41:01;3.22;;;0.40;;
40433;SDS011;26146;51.114;5.654;2022-07-04T09:45:22;4.15;;;0.50;;
40433;SDS011;26146;51.114;5.654;2022-07-04T09:49:24;3.95;;;0.50;;
40433;SDS011;26146;51.114;5.654;2022-07-04T09:53:27;2.95;;;0.40;;
40433;SDS011;26146;51.114;5.654;2022-07-04T09:57:29;3.53;;;0.60;;
40433;SDS011;26146;51.114;5.654;2022-07-04T10:01:31;3.83;;;0.50;;
40433;SDS011;26146;51.114;5.654;2022-07-04T10:05:32;3.50;;;0.45;;
40433;SDS011;26146;51.114;5.654;2022-07-04T10:09:33;2.85;;;0.50;;
40433;SDS011;26146;51.114;5.654;2022-07-04T10:13:34;4.55;;;0.50;;
40433;SDS011;26146;51.114;5.654;2022-07-04T10:17:36;4.07;;;0.55;;
40433;SDS011;26146;51.114;5.654;2022-07-04T10:21:38;5.43;;;0.47;;
40433;SDS011;26146;51.114;5.654;2022-07-04T10:25:39;3.42;;;0.55;;
40433;SDS011;26146;51.114;5.654;2022-07-04T10:29:42;3.78;;;0.40;;
40433;SDS011;26146;51.114;5.654;2022-07-04T10:33:43;3.05;;;0.47;;
40433;SDS011;26146;51.114;5.654;2022-07-04T10:47:35;2.58;;;0.40;;
40433;SDS011;26146;51.114;5.654;2022-07-04T10:51:52;4.47;;;0.55;;
40433;SDS011;26146;51.114;5.654;2022-07-04T11:00:15;4.15;;;0.40;;
40433;SDS011;26146;51.114;5.654;2022-07-04T11:13:17;4.85;;;0.40;;
40433;SDS011;26146;51.114;5.654;2022-07-04T11:17:20;4.05;;;0.52;;
40433;SDS011;26146;51.114;5.654;2022-07-04T11:21:26;2.95;;;0.55;;
40433;SDS011;26146;51.114;5.654;2022-07-04T11:25:29;3.08;;;0.50;;
40433;SDS011;26146;51.114;5.654;2022-07-04T11:29:31;3.20;;;0.47;;
40433;SDS011;26146;51.114;5.654;2022-07-04T11:33:34;3.50;;;0.40;;
40433;SDS011;26146;51.114;5.654;2022-07-04T11:37:42;2.75;;;0.47;;
40433;SDS011;26146;51.114;5.654;2022-07-04T11:41:49;4.45;;;0.60;;
40433;SDS011;26146;51.114;5.654;2022-07-04T11:46:10;3.22;;;0.50;;
40433;SDS011;26146;51.114;5.654;2022-07-04T11:50:13;3.47;;;0.63;;
40433;SDS011;26146;51.114;5.654;2022-07-04T11:54:15;3.58;;;0.50;;
40433;SDS011;26146;51.114;5.654;2022-07-04T11:58:18;2.80;;;0.50;;
40433;SDS011;26146;51.114;5.654;2022-07-04T12:02:19;5.43;;;0.70;;
40433;SDS011;26146;51.114;5.654;2022-07-04T12:06:20;3.42;;;0.40;;
40433;SDS011;26146;51.114;5.654;2022-07-04T12:10:22;3.38;;;0.50;;
40433;SDS011;26146;51.114;5.654;2022-07-04T12:14:26;6.20;;;0.77;;
40433;SDS011;26146;51.114;5.654;2022-07-04T12:18:28;3.45;;;0.60;;
40433;SDS011;26146;51.114;5.654;2022-07-04T12:22:36;2.05;;;0.40;;
40433;SDS011;26146;51.114;5.654;2022-07-04T12:26:45;2.15;;;0.30;;
40433;SDS011;26146;51.114;5.654;2022-07-04T12:30:53;3.58;;;0.50;;
40433;SDS011;26146;51.114;5.654;2022-07-04T12:34:58;2.90;;;0.55;;
40433;SDS011;26146;51.114;5.654;2022-07-04T12:38:59;2.75;;;0.45;;
40433;SDS011;26146;51.114;5.654;2022-07-04T12:43:00;5.15;;;0.50;;
40433;SDS011;26146;51.114;5.654;2022-07-04T12:47:02;3.35;;;0.43;;
40433;SDS011;26146;51.114;5.654;2022-07-04T12:51:09;3.78;;;0.52;;
40433;SDS011;26146;51.114;5.654;2022-07-04T12:55:15;2.15;;;0.30;;
40433;SDS011;26146;51.114;5.654;2022-07-04T12:59:16;3.67;;;0.55;;
40433;SDS011;26146;51.114;5.654;2022-07-04T13:03:20;3.30;;;0.68;;
40433;SDS011;26146;51.114;5.654;2022-07-04T13:07:21;3.70;;;0.45;;
40433;SDS011;26146;51.114;5.654;2022-07-04T13:11:22;2.95;;;0.40;;
40433;SDS011;26146;51.114;5.654;2022-07-04T13:15:47;2.47;;;0.38;;
40433;SDS011;26146;51.114;5.654;2022-07-04T13:19:48;2.47;;;0.30;;
40433;SDS011;26146;51.114;5.654;2022-07-04T13:23:49;2.55;;;0.45;;
40433;SDS011;26146;51.114;5.654;2022-07-04T13:27:50;3.90;;;0.60;;
40433;SDS011;26146;51.114;5.654;2022-07-04T13:31:53;4.28;;;0.55;;
40433;SDS011;26146;51.114;5.654;2022-07-04T13:35:54;2.13;;;0.40;;
40433;SDS011;26146;51.114;5.654;2022-07-04T13:39:55;3.97;;;0.50;;
40433;SDS011;26146;51.114;5.654;2022-07-04T13:44:03;4.35;;;0.60;;
40433;SDS011;26146;51.114;5.654;2022-07-04T13:48:05;5.47;;;0.70;;
40433;SDS011;26146;51.114;5.654;2022-07-04T13:52:10;5.32;;;0.50;;
40433;SDS011;26146;51.114;5.654;2022-07-04T13:56:12;3.05;;;0.40;;
40433;SDS011;26146;51.114;5.654;2022-07-04T14:00:16;2.50;;;0.60;;
40433;SDS011;26146;51.114;5.654;2022-07-04T14:04:17;3.05;;;0.50;;
40433;SDS011;26146;51.114;5.654;2022-07-04T14:08:18;3.10;;;0.50;;
40433;SDS011;26146;51.114;5.654;2022-07-04T14:12:19;2.40;;;0.40;;
40433;SDS011;26146;51.114;5.654;2022-07-04T14:16:20;3.35;;;0.50;;
40433;SDS011;26146;51.114;5.654;2022-07-04T14:20:21;2.83;;;0.50;;
40433;SDS011;26146;51.114;5.654;2022-07-04T14:24:22;4.28;;;0.50;;
40433;SDS011;26146;51.114;5.654;2022-07-04T14:28:25;3.45;;;0.68;;
40433;SDS011;26146;51.114;5.654;2022-07-04T14:32:26;2.85;;;0.50;;
40433;SDS011;26146;51.114;5.654;2022-07-04T14:36:30;4.77;;;0.60;;
40433;SDS011;26146;51.114;5.654;2022-07-04T14:40:31;3.05;;;0.52;;
40433;SDS011;26146;51.114;5.654;2022-07-04T14:44:32;6.13;;;0.60;;
40433;SDS011;26146;51.114;5.654;2022-07-04T14:48:38;4.47;;;0.70;;
40433;SDS011;26146;51.114;5.654;2022-07-04T14:52:41;5.63;;;0.67;;
40433;SDS011;26146;51.114;5.654;2022-07-04T14:56:42;3.65;;;0.50;;
40433;SDS011;26146;51.114;5.654;2022-07-04T15:00:43;3.35;;;0.52;;
40433;SDS011;26146;51.114;5.654;2022-07-04T15:04:44;4.43;;;0.60;;
40433;SDS011;26146;51.114;5.654;2022-07-04T15:08:45;3.58;;;0.52;;
40433;SDS011;26146;51.114;5.654;2022-07-04T15:12:46;3.13;;;0.50;;
40433;SDS011;26146;51.114;5.654;2022-07-04T15:16:47;4.55;;;0.50;;
40433;SDS011;26146;51.114;5.654;2022-07-04T15:20:48;4.50;;;0.68;;
40433;SDS011;26146;51.114;5.654;2022-07-04T15:25:08;2.00;;;0.32;;
40433;SDS011;26146;51.114;5.654;2022-07-04T15:29:09;3.83;;;0.60;;
40433;SDS011;26146;51.114;5.654;2022-07-04T15:33:10;3.72;;;0.57;;
40433;SDS011;26146;51.114;5.654;2022-07-04T15:37:15;3.67;;;0.50;;
40433;SDS011;26146;51.114;5.654;2022-07-04T15:41:16;3.53;;;0.50;;
40433;SDS011;26146;51.114;5.654;2022-07-04T15:45:17;3.00;;;0.50;;
40433;SDS011;26146;51.114;5.654;2022-07-04T15:49:18;2.38;;;0.43;;
40433;SDS011;26146;51.114;5.654;2022-07-04T15:53:19;3.60;;;0.60;;
40433;SDS011;26146;51.114;5.654;2022-07-04T15:57:20;3.80;;;0.47;;
40433;SDS011;26146;51.114;5.654;2022-07-04T16:01:21;5.35;;;0.50;;
40433;SDS011;26146;51.114;5.654;2022-07-04T16:05:22;6.10;;;0.90;;
40433;SDS011;26146;51.114;5.654;2022-07-04T16:09:23;5.55;;;0.80;;
40433;SDS011;26146;51.114;5.654;2022-07-04T16:13:24;4.50;;;0.60;;
40433;SDS011;26146;51.114;5.654;2022-07-04T16:17:26;4.30;;;0.77;;
40433;SDS011;26146;51.114;5.654;2022-07-04T16:21:27;3.72;;;0.65;;
40433;SDS011;26146;51.114;5.654;2022-07-04T16:25:28;4.78;;;0.70;;
40433;SDS011;26146;51.114;5.654;2022-07-04T16:29:29;4.05;;;0.80;;
40433;SDS011;26146;51.114;5.654;2022-07-04T16:33:30;4.38;;;0.60;;
40433;SDS011;26146;51.114;5.654;2022-07-04T16:37:31;4.40;;;0.80;;
40433;SDS011;26146;51.114;5.654;2022-07-04T16:41:32;3.13;;;0.70;;
40433;SDS011;26146;51.114;5.654;2022-07-04T16:45:33;5.57;;;0.70;;
40433;SDS011;26146;51.114;5.654;2022-07-04T16:49:34;3.03;;;0.60;;
40433;SDS011;26146;51.114;5.654;2022-07-04T16:53:35;4.07;;;0.63;;
40433;SDS011;26146;51.114;5.654;2022-07-04T16:57:36;4.25;;;0.73;;
40433;SDS011;26146;51.114;5.654;2022-07-04T17:01:37;3.97;;;0.63;;
40433;SDS011;26146;51.114;5.654;2022-07-04T17:05:38;3.83;;;0.75;;
40433;SDS011;26146;51.114;5.654;2022-07-04T17:09:39;5.70;;;0.88;;
40433;SDS011;26146;51.114;5.654;2022-07-04T17:13:42;4.90;;;0.70;;
40433;SDS011;26146;51.114;5.654;2022-07-04T17:17:44;3.25;;;0.70;;
40433;SDS011;26146;51.114;5.654;2022-07-04T17:21:45;3.47;;;0.70;;
40433;SDS011;26146;51.114;5.654;2022-07-04T17:25:46;5.65;;;1.00;;
40433;SDS011;26146;51.114;5.654;2022-07-04T17:29:47;4.85;;;0.80;;
40433;SDS011;26146;51.114;5.654;2022-07-04T17:33:48;3.78;;;0.70;;
40433;SDS011;26146;51.114;5.654;2022-07-04T17:37:49;4.50;;;0.70;;
40433;SDS011;26146;51.114;5.654;2022-07-04T17:41:50;4.22;;;0.77;;
40433;SDS011;26146;51.114;5.654;2022-07-04T17:45:51;3.85;;;0.70;;
40433;SDS011;26146;51.114;5.654;2022-07-04T17:49:52;3.65;;;0.80;;
40433;SDS011;26146;51.114;5.654;2022-07-04T17:53:55;4.72;;;0.80;;
40433;SDS011;26146;51.114;5.654;2022-07-04T17:58:17;4.43;;;0.80;;
40433;SDS011;26146;51.114;5.654;2022-07-04T18:02:18;3.50;;;0.70;;
40433;SDS011;26146;51.114;5.654;2022-07-04T18:06:19;3.20;;;0.70;;
40433;SDS011;26146;51.114;5.654;2022-07-04T18:10:20;3.97;;;0.70;;
40433;SDS011;26146;51.114;5.654;2022-07-04T18:14:21;6.03;;;0.80;;
40433;SDS011;26146;51.114;5.654;2022-07-04T18:18:24;3.97;;;0.85;;
40433;SDS011;26146;51.114;5.654;2022-07-04T18:22:25;5.35;;;1.00;;
40433;SDS011;26146;51.114;5.654;2022-07-04T18:26:26;3.55;;;0.70;;
40433;SDS011;26146;51.114;5.654;2022-07-04T18:30:27;5.80;;;0.95;;
40433;SDS011;26146;51.114;5.654;2022-07-04T18:34:28;3.90;;;0.88;;
40433;SDS011;26146;51.114;5.654;2022-07-04T18:38:30;4.60;;;1.10;;
40433;SDS011;26146;51.114;5.654;2022-07-04T18:42:31;6.47;;;1.25;;
40433;SDS011;26146;51.114;5.654;2022-07-04T18:46:50;5.65;;;1.30;;
40433;SDS011;26146;51.114;5.654;2022-07-04T18:50:52;6.68;;;1.70;;
40433;SDS011;26146;51.114;5.654;2022-07-04T18:54:54;6.18;;;1.70;;
40433;SDS011;26146;51.114;5.654;2022-07-04T18:58:55;6.38;;;1.83;;
40433;SDS011;26146;51.114;5.654;2022-07-04T19:02:56;7.43;;;1.80;;
40433;SDS011;26146;51.114;5.654;2022-07-04T19:06:57;6.00;;;2.10;;
40433;SDS011;26146;51.114;5.654;2022-07-04T19:10:58;8.27;;;2.03;;
40433;SDS011;26146;51.114;5.654;2022-07-04T19:14:59;9.27;;;2.47;;
40433;SDS011;26146;51.114;5.654;2022-07-04T19:18:59;8.00;;;2.70;;
40433;SDS011;26146;51.114;5.654;2022-07-04T19:23:01;8.13;;;2.80;;
40433;SDS011;26146;51.114;5.654;2022-07-04T19:27:05;7.90;;;2.88;;
40433;SDS011;26146;51.114;5.654;2022-07-04T19:31:06;6.88;;;2.72;;
40433;SDS011;26146;51.114;5.654;2022-07-04T19:35:07;8.45;;;2.97;;
40433;SDS011;26146;51.114;5.654;2022-07-04T19:39:09;8.30;;;2.90;;
40433;SDS011;26146;51.114;5.654;2022-07-04T19:43:10;6.88;;;2.90;;
40433;SDS011;26146;51.114;5.654;2022-07-04T19:47:12;7.85;;;2.67;;
40433;SDS011;26146;51.114;5.654;2022-07-04T19:51:13;8.00;;;2.22;;
40433;SDS011;26146;51.114;5.654;2022-07-04T19:55:15;5.63;;;1.70;;
40433;SDS011;26146;51.114;5.654;2022-07-04T19:59:16;5.75;;;1.50;;
40433;SDS011;26146;51.114;5.654;2022-07-04T20:03:18;5.45;;;1.50;;
40433;SDS011;26146;51.114;5.654;2022-07-04T20:07:19;5.00;;;1.50;;
40433;SDS011;26146;51.114;5.654;2022-07-04T20:11:20;6.35;;;1.50;;
40433;SDS011;26146;51.114;5.654;2022-07-04T20:15:21;5.28;;;1.40;;
40433;SDS011;26146;51.114;5.654;2022-07-04T20:19:22;5.40;;;1.80;;
40433;SDS011;26146;51.114;5.654;2022-07-04T20:23:23;5.85;;;1.50;;
40433;SDS011;26146;51.114;5.654;2022-07-04T20:27:24;6.30;;;1.70;;
40433;SDS011;26146;51.114;5.654;2022-07-04T20:31:25;6.22;;;1.70;;
40433;SDS011;26146;51.114;5.654;2022-07-04T20:35:26;5.10;;;1.42;;
40433;SDS011;26146;51.114;5.654;2022-07-04T20:39:27;7.05;;;1.50;;
40433;SDS011;26146;51.114;5.654;2022-07-04T20:43:28;4.97;;;1.50;;
40433;SDS011;26146;51.114;5.654;2022-07-04T20:47:30;7.40;;;1.90;;
40433;SDS011;26146;51.114;5.654;2022-07-04T20:51:32;4.60;;;1.52;;
40433;SDS011;26146;51.114;5.654;2022-07-04T20:55:33;6.03;;;1.67;;
40433;SDS011;26146;51.114;5.654;2022-07-04T20:59:34;5.85;;;1.90;;
40433;SDS011;26146;51.114;5.654;2022-07-04T21:03:36;5.78;;;2.17;;
40433;SDS011;26146;51.114;5.654;2022-07-04T21:07:37;6.03;;;2.50;;
40433;SDS011;26146;51.114;5.654;2022-07-04T21:11:38;7.22;;;1.98;;
40433;SDS011;26146;51.114;5.654;2022-07-04T21:15:39;5.90;;;1.55;;
40433;SDS011;26146;51.114;5.654;2022-07-04T21:19:40;6.15;;;1.80;;
40433;SDS011;26146;51.114;5.654;2022-07-04T21:23:42;6.57;;;1.80;;
40433;SDS011;26146;51.114;5.654;2022-07-04T21:27:43;8.32;;;1.90;;
40433;SDS011;26146;51.114;5.654;2022-07-04T21:31:45;4.93;;;1.52;;
40433;SDS011;26146;51.114;5.654;2022-07-04T21:35:46;6.28;;;1.60;;
40433;SDS011;26146;51.114;5.654;2022-07-04T21:39:47;5.13;;;1.50;;
40433;SDS011;26146;51.114;5.654;2022-07-04T21:43:48;4.90;;;1.50;;
40433;SDS011;26146;51.114;5.654;2022-07-04T21:47:50;5.43;;;1.50;;
40433;SDS011;26146;51.114;5.654;2022-07-04T21:51:52;4.95;;;1.70;;
40433;SDS011;26146;51.114;5.654;2022-07-04T21:55:53;6.35;;;1.70;;
40433;SDS011;26146;51.114;5.654;2022-07-04T21:59:53;6.97;;;1.50;;
40433;SDS011;26146;51.114;5.654;2022-07-04T22:03:54;7.15;;;1.80;;
40433;SDS011;26146;51.114;5.654;2022-07-04T22:07:55;5.10;;;1.63;;
40433;SDS011;26146;51.114;5.654;2022-07-04T22:11:56;6.13;;;1.60;;
40433;SDS011;26146;51.114;5.654;2022-07-04T22:15:57;5.90;;;1.70;;
40433;SDS011;26146;51.114;5.654;2022-07-04T22:19:58;5.32;;;1.70;;
40433;SDS011;26146;51.114;5.654;2022-07-04T22:24:03;5.55;;;1.80;;
40433;SDS011;26146;51.114;5.654;2022-07-04T22:28:04;6.43;;;2.00;;
40433;SDS011;26146;51.114;5.654;2022-07-04T22:32:05;5.55;;;1.90;;
40433;SDS011;26146;51.114;5.654;2022-07-04T22:36:06;6.53;;;1.90;;
40433;SDS011;26146;51.114;5.654;2022-07-04T22:40:08;5.13;;;1.80;;
40433;SDS011;26146;51.114;5.654;2022-07-04T22:44:09;5.32;;;1.77;;
40433;SDS011;26146;51.114;5.654;2022-07-04T22:48:10;6.30;;;1.80;;
40433;SDS011;26146;51.114;5.654;2022-07-04T22:52:11;6.50;;;1.90;;
40433;SDS011;26146;51.114;5.654;2022-07-04T22:56:12;4.82;;;1.60;;
40433;SDS011;26146;51.114;5.654;2022-07-04T23:00:14;5.45;;;1.73;;
40433;SDS011;26146;51.114;5.654;2022-07-04T23:04:16;5.22;;;1.73;;
40433;SDS011;26146;51.114;5.654;2022-07-04T23:08:17;6.97;;;1.90;;
40433;SDS011;26146;51.114;5.654;2022-07-04T23:12:19;8.65;;;2.80;;
40433;SDS011;26146;51.114;5.654;2022-07-04T23:16:20;6.85;;;1.98;;
40433;SDS011;26146;51.114;5.654;2022-07-04T23:20:21;8.70;;;2.35;;
40433;SDS011;26146;51.114;5.654;2022-07-04T23:24:22;5.68;;;2.10;;
40433;SDS011;26146;51.114;5.654;2022-07-04T23:28:25;7.28;;;2.42;;
40433;SDS011;26146;51.114;5.654;2022-07-04T23:32:26;6.03;;;2.30;;
40433;SDS011;26146;51.114;5.654;2022-07-04T23:36:27;6.32;;;2.20;;
40433;SDS011;26146;51.114;5.654;2022-07-04T23:40:28;8.88;;;2.83;;
40433;SDS011;26146;51.114;5.654;2022-07-04T23:44:30;6.65;;;2.30;;
40433;SDS011;26146;51.114;5.654;2022-07-04T23:48:31;6.85;;;2.40;;
40433;SDS011;26146;51.114;5.654;2022-07-04T23:52:35;6.13;;;2.10;;
40433;SDS011;26146;51.114;5.654;2022-07-04T23:56:36;6.00;;;2.30;;
